Search for airport 
image banner adimage banner adimage banner ad
image banner ad

59CN - James Brothers

Located in Pleasant Grove, United States

ICAO - 59CN, IATA -

Data provided by Airmate  

General information

Coordinates: N38°50'6" W121°31'47"
Elevation is 25 feet MSL.
Magnetic variation is 16° East
View others Airports in California

Operational data

Special qualification required
Current time UTC:
Current local time:
Weather at : KSMF - Sacramento Intl ( 16 km )
METAR: KSMF 231453Z 01003KT 7SM CLR 17/09 A2993 RMK AO2 SLP136 T01670089 53007
TAF: KSMF 231120Z 2312/2412 33008KT P6SM SKC FM240400 17006KT P6SM FEW250
View NOTAMs / SUP AIP / TFR affecting this airport [VIEW]
Communications frequencies: [VIEW]

Runways:

RWY identifierQFULength (ft)Width (ft)SurfaceLDA (ft)
16250075GRASS
34250075GRASS

Airport contact information

Address: Pleasant Grove United States

Satellite view of 59CN